createdAt,value
2019-02-10T00:01:50.732Z,8.30
2019-02-10T00:04:21.082Z,8.20
2019-02-10T00:06:51.418Z,8.10
2019-02-10T00:09:21.843Z,8.10
2019-02-10T00:11:52.180Z,8.10
2019-02-10T00:14:23.899Z,8.10
2019-02-10T00:16:54.157Z,8.10
2019-02-10T00:19:24.436Z,8.10
2019-02-10T00:21:54.904Z,8.00
2019-02-10T00:24:25.179Z,8.00
2019-02-10T00:26:55.606Z,7.90
2019-02-10T00:29:25.839Z,7.80
2019-02-10T00:31:56.168Z,7.70
2019-02-10T00:34:26.471Z,7.60
2019-02-10T00:36:56.787Z,7.50
2019-02-10T00:39:27.100Z,7.50
2019-02-10T00:41:57.457Z,7.50
2019-02-10T00:44:27.844Z,7.40
2019-02-10T00:46:58.180Z,7.40
2019-02-10T00:49:28.488Z,7.40
2019-02-10T00:51:58.753Z,7.40
2019-02-10T00:54:29.086Z,7.40
2019-02-10T00:56:59.448Z,7.40
2019-02-10T00:59:29.726Z,7.40
2019-02-10T01:02:00.019Z,7.40
2019-02-10T01:04:30.271Z,7.40
2019-02-10T01:07:00.696Z,7.30
2019-02-10T01:09:30.950Z,7.30
2019-02-10T01:12:01.315Z,7.30
2019-02-10T01:14:31.955Z,7.30
2019-02-10T01:17:02.299Z,7.30
2019-02-10T01:19:32.637Z,7.30
2019-02-10T01:22:03.001Z,7.30
2019-02-10T01:24:33.640Z,7.20
2019-02-10T01:27:04.259Z,7.20
2019-02-10T01:29:35.971Z,7.20
2019-02-10T01:32:06.487Z,7.20
2019-02-10T01:34:37.181Z,7.10
2019-02-10T01:37:07.529Z,7.10
2019-02-10T01:39:37.899Z,7.00
2019-02-10T01:42:08.376Z,7.00
2019-02-10T01:44:38.806Z,7.00
2019-02-10T01:47:09.193Z,7.00
2019-02-10T01:49:39.519Z,7.00
2019-02-10T01:52:09.934Z,7.00
2019-02-10T01:54:40.341Z,7.00
2019-02-10T01:57:10.732Z,6.90
2019-02-10T01:59:41.129Z,6.90
2019-02-10T02:02:13.012Z,6.90
2019-02-10T02:04:43.340Z,6.90
2019-02-10T02:07:15.170Z,6.90
2019-02-10T02:09:45.500Z,6.90
2019-02-10T02:12:15.952Z,6.90
2019-02-10T02:14:46.314Z,6.90
2019-02-10T02:17:16.752Z,6.90
2019-02-10T02:19:47.248Z,6.90
2019-02-10T02:22:17.580Z,6.90
2019-02-10T02:24:47.989Z,6.90
2019-02-10T02:27:18.382Z,6.90
2019-02-10T02:29:48.880Z,6.90
2019-02-10T02:32:19.520Z,6.90
2019-02-10T02:34:50.658Z,6.90
2019-02-10T02:37:21.020Z,6.90
2019-02-10T02:39:51.373Z,6.90
2019-02-10T02:42:22.796Z,6.90
2019-02-10T02:44:53.164Z,6.90
2019-02-10T02:47:23.622Z,6.90
2019-02-10T02:49:53.951Z,6.90
2019-02-10T02:52:24.279Z,6.90
2019-02-10T02:54:54.701Z,6.90
2019-02-10T02:57:25.037Z,6.90
2019-02-10T02:59:55.362Z,6.90
2019-02-10T03:02:25.781Z,6.90
2019-02-10T03:04:56.320Z,6.90
2019-02-10T03:07:26.637Z,6.90
2019-02-10T03:09:57.076Z,6.90
2019-02-10T03:12:27.483Z,6.90
2019-02-10T03:15:00.105Z,6.80
2019-02-10T03:17:30.560Z,6.90
2019-02-10T03:20:00.972Z,6.80
2019-02-10T03:22:31.252Z,6.80
2019-02-10T03:25:01.673Z,6.90
2019-02-10T03:27:31.964Z,6.80
2019-02-10T03:30:02.390Z,6.80
2019-02-10T03:32:36.110Z,6.80
2019-02-10T03:35:06.872Z,6.80
2019-02-10T03:37:38.394Z,6.80
2019-02-10T03:40:09.037Z,6.80
2019-02-10T03:42:39.453Z,6.80
2019-02-10T03:45:09.904Z,6.80
2019-02-10T03:47:40.222Z,6.80
2019-02-10T03:50:10.795Z,6.80
2019-02-10T03:52:41.227Z,6.80
2019-02-10T03:55:11.594Z,6.90
2019-02-10T03:57:41.964Z,6.80
2019-02-10T04:00:12.347Z,6.80
2019-02-10T04:02:42.890Z,6.80
2019-02-10T04:05:13.355Z,6.80
2019-02-10T04:07:43.749Z,6.80
2019-02-10T04:10:14.136Z,6.80
2019-02-10T04:12:44.514Z,6.80
2019-02-10T04:15:14.872Z,6.80
2019-02-10T04:17:45.128Z,6.80
2019-02-10T04:20:15.803Z,6.80
2019-02-10T04:22:46.245Z,6.80
2019-02-10T04:25:23.702Z,6.80
2019-02-10T04:27:54.112Z,6.80
2019-02-10T04:30:24.464Z,6.70
2019-02-10T04:32:54.865Z,6.70
2019-02-10T04:35:25.714Z,6.70
2019-02-10T04:37:56.159Z,6.70
2019-02-10T04:40:26.530Z,6.70
2019-02-10T04:42:57.146Z,6.60
2019-02-10T04:45:27.640Z,6.60
2019-02-10T04:47:57.936Z,6.60
2019-02-10T04:50:28.286Z,6.60
2019-02-10T04:52:58.630Z,6.60
2019-02-10T04:55:29.089Z,6.60
2019-02-10T04:57:59.545Z,6.60
2019-02-10T05:00:29.947Z,6.60
2019-02-10T05:03:00.288Z,6.50
2019-02-10T05:05:30.644Z,6.50
2019-02-10T05:08:00.943Z,6.50
2019-02-10T05:10:31.350Z,6.40
2019-02-10T05:13:01.761Z,6.40
2019-02-10T05:15:32.165Z,6.40
2019-02-10T05:18:02.629Z,6.40
2019-02-10T05:20:32.988Z,6.30
2019-02-10T05:23:03.370Z,6.30
2019-02-10T05:25:33.753Z,6.30
2019-02-10T05:28:04.134Z,6.30
2019-02-10T05:30:34.555Z,6.30
2019-02-10T05:33:05.373Z,6.30
2019-02-10T05:35:35.819Z,6.30
2019-02-10T05:38:06.782Z,6.30
2019-02-10T05:40:37.243Z,6.20
2019-02-10T05:43:10.147Z,6.30
2019-02-10T05:45:40.584Z,6.20
2019-02-10T05:48:11.241Z,6.20
2019-02-10T05:50:42.027Z,6.20
2019-02-10T05:53:12.394Z,6.20
2019-02-10T05:55:42.841Z,6.20
2019-02-10T05:58:13.643Z,6.20
2019-02-10T06:00:44.161Z,6.20
2019-02-10T06:03:14.550Z,6.20
2019-02-10T06:05:44.859Z,6.20
2019-02-10T06:08:15.394Z,6.20
2019-02-10T06:10:47.585Z,6.20
2019-02-10T06:13:18.012Z,6.20
2019-02-10T06:15:48.372Z,6.10
2019-02-10T06:18:18.865Z,6.10
2019-02-10T06:20:49.289Z,6.10
2019-02-10T06:23:19.654Z,6.10
2019-02-10T06:25:50.883Z,6.10
2019-02-10T06:28:22.863Z,6.10
2019-02-10T06:30:53.279Z,6.10
2019-02-10T06:33:23.675Z,6.10
2019-02-10T06:35:54.109Z,6.10
2019-02-10T06:38:24.525Z,6.10
2019-02-10T06:40:54.998Z,6.10
2019-02-10T06:43:25.415Z,6.10
2019-02-10T06:45:55.763Z,6.10
2019-02-10T06:48:26.038Z,6.10
2019-02-10T06:50:56.826Z,6.10
2019-02-10T06:53:27.262Z,6.10
2019-02-10T06:55:57.630Z,6.10
2019-02-10T06:58:28.153Z,6.10
2019-02-10T07:01:13.110Z,6.10
2019-02-10T07:04:15.128Z,6.10
2019-02-10T07:06:45.582Z,6.10
2019-02-10T07:09:15.950Z,6.10
2019-02-10T07:11:46.559Z,6.10
2019-02-10T07:14:24.724Z,6.20
2019-02-10T07:17:42.364Z,6.20
2019-02-10T07:20:40.984Z,6.10
2019-02-10T07:23:58.577Z,6.10
2019-02-10T07:26:53.083Z,6.10
2019-02-10T07:30:15.113Z,6.20
2019-02-10T07:32:49.136Z,6.20
2019-02-10T07:35:56.127Z,6.10
2019-02-10T07:39:19.858Z,6.20
2019-02-10T07:42:21.972Z,6.20
2019-02-10T07:45:37.953Z,6.10
2019-02-10T07:48:24.197Z,6.20
2019-02-10T07:51:37.687Z,6.20
2019-02-10T07:54:42.149Z,6.20
2019-02-10T07:57:43.547Z,6.20
2019-02-10T08:00:51.524Z,6.20
2019-02-10T08:04:14.774Z,6.20
2019-02-10T08:07:09.267Z,6.20
2019-02-10T08:09:48.232Z,6.20
2019-02-10T08:13:10.979Z,6.10
2019-02-10T08:16:00.558Z,6.20
2019-02-10T08:19:02.327Z,6.20
2019-02-10T08:22:12.313Z,6.20
2019-02-10T08:25:12.290Z,6.20
2019-02-10T08:28:19.173Z,6.20
2019-02-10T08:31:33.569Z,6.20
2019-02-10T08:34:23.628Z,6.20
2019-02-10T08:37:18.792Z,6.10
2019-02-10T08:40:34.515Z,6.20
2019-02-10T08:44:01.379Z,6.20
2019-02-10T08:47:14.713Z,6.20
2019-02-10T08:50:38.529Z,6.20
2019-02-10T08:53:16.147Z,6.20
2019-02-10T08:55:47.142Z,6.30
2019-02-10T08:58:17.543Z,6.20
2019-02-10T09:00:48.167Z,6.30
2019-02-10T09:03:19.839Z,6.30
2019-02-10T09:05:50.681Z,6.30
2019-02-10T09:08:21.275Z,6.30
2019-02-10T09:10:51.624Z,6.30
2019-02-10T09:13:22.137Z,6.30
2019-02-10T09:15:52.481Z,6.40
2019-02-10T09:18:22.900Z,6.40
2019-02-10T09:20:53.253Z,6.40
2019-02-10T09:23:23.575Z,6.40
2019-02-10T09:25:53.972Z,6.50
2019-02-10T09:28:24.392Z,6.40
2019-02-10T09:30:54.771Z,6.40
2019-02-10T09:33:26.785Z,6.50
2019-02-10T09:35:57.321Z,6.50
2019-02-10T09:38:27.714Z,6.50
2019-02-10T09:40:59.444Z,6.50
2019-02-10T09:43:30.623Z,6.50
2019-02-10T09:46:01.018Z,6.50
2019-02-10T09:48:31.521Z,6.50
2019-02-10T09:51:01.964Z,6.50
2019-02-10T09:53:32.606Z,6.50
2019-02-10T09:56:03.082Z,6.50
2019-02-10T09:58:33.498Z,6.50
2019-02-10T10:01:03.965Z,6.50
2019-02-10T10:03:34.332Z,6.50
2019-02-10T10:06:04.698Z,6.40
2019-02-10T10:08:35.095Z,6.40
2019-02-10T10:11:05.564Z,6.50
2019-02-10T10:13:35.978Z,6.50
2019-02-10T10:16:06.417Z,6.50
2019-02-10T10:18:36.890Z,6.50
2019-02-10T10:21:07.290Z,6.50
2019-02-10T10:23:37.674Z,6.50
2019-02-10T10:26:08.008Z,6.50
2019-02-10T10:28:38.500Z,6.60
2019-02-10T10:31:08.926Z,6.50
2019-02-10T10:33:39.387Z,6.50
2019-02-10T10:36:09.788Z,6.50
2019-02-10T10:38:40.120Z,6.50
2019-02-10T10:41:10.533Z,6.50
2019-02-10T10:43:40.950Z,6.50
2019-02-10T10:46:11.835Z,6.50
2019-02-10T10:48:42.288Z,6.40
2019-02-10T10:51:12.779Z,6.40
2019-02-10T10:53:43.217Z,6.40
2019-02-10T10:56:13.850Z,6.50
2019-02-10T10:58:44.463Z,6.50
2019-02-10T11:01:15.000Z,6.50
2019-02-10T11:03:50.256Z,6.60
2019-02-10T11:06:20.740Z,6.50
2019-02-10T11:08:52.692Z,6.60
2019-02-10T11:11:23.032Z,6.50
2019-02-10T11:13:53.508Z,6.60
2019-02-10T11:16:24.008Z,6.60
2019-02-10T11:18:55.664Z,6.70
2019-02-10T11:21:26.140Z,6.80
2019-02-10T11:23:56.519Z,6.80
2019-02-10T11:26:27.032Z,6.80
2019-02-10T11:28:57.409Z,6.80
2019-02-10T11:31:29.439Z,6.70
2019-02-10T11:33:59.774Z,6.80
2019-02-10T11:36:31.675Z,6.80
2019-02-10T11:39:02.131Z,6.80
2019-02-10T11:41:37.059Z,6.80
2019-02-10T11:44:07.634Z,6.90
2019-02-10T11:46:39.528Z,6.80
2019-02-10T11:49:09.941Z,6.70
2019-02-10T11:51:40.346Z,6.70
2019-02-10T11:54:11.006Z,6.80
2019-02-10T11:56:41.517Z,6.80
2019-02-10T11:59:11.926Z,6.80
2019-02-10T12:01:42.512Z,6.80
2019-02-10T12:04:13.887Z,6.80
2019-02-10T12:06:44.254Z,6.80
2019-02-10T12:09:21.217Z,6.70
2019-02-10T12:12:00.632Z,6.70
2019-02-10T12:14:32.625Z,6.60
2019-02-10T12:17:03.043Z,6.60
2019-02-10T12:19:33.740Z,6.60
2019-02-10T12:22:06.637Z,6.60
2019-02-10T12:24:37.072Z,6.70
2019-02-10T12:27:07.500Z,6.70
2019-02-10T12:29:37.880Z,6.90
2019-02-10T12:32:10.917Z,7.00
2019-02-10T12:34:41.448Z,7.20
2019-02-10T12:37:13.403Z,7.10
2019-02-10T12:39:43.754Z,7.10
2019-02-10T12:42:14.233Z,7.10
2019-02-10T12:44:44.613Z,7.10
2019-02-10T12:47:16.107Z,7.10
2019-02-10T12:49:46.523Z,7.20
2019-02-10T12:52:17.012Z,7.30
2019-02-10T12:54:47.459Z,7.20
2019-02-10T12:57:17.994Z,7.20
2019-02-10T12:59:48.529Z,7.10
2019-02-10T13:02:19.002Z,7.10
2019-02-10T13:04:49.475Z,7.10
2019-02-10T13:07:19.834Z,7.00
2019-02-10T13:09:50.354Z,7.00
2019-02-10T13:12:21.849Z,7.10
2019-02-10T13:14:52.249Z,7.10
2019-02-10T13:17:22.673Z,7.10
2019-02-10T13:19:53.129Z,7.10
2019-02-10T13:22:23.573Z,7.10
2019-02-10T13:24:55.517Z,7.10
2019-02-10T13:27:25.888Z,7.10
2019-02-10T13:29:56.264Z,7.10
2019-02-10T13:32:26.620Z,7.10
2019-02-10T13:34:58.600Z,7.00
2019-02-10T13:37:28.968Z,6.90
2019-02-10T13:40:01.218Z,6.80
2019-02-10T13:42:31.864Z,6.80
2019-02-10T13:45:02.369Z,6.80
2019-02-10T13:47:35.761Z,6.90
2019-02-10T13:50:06.925Z,6.90
2019-02-10T13:52:38.905Z,7.00
2019-02-10T13:55:10.352Z,6.90
2019-02-10T13:57:42.028Z,6.90
2019-02-10T14:00:15.016Z,6.90
2019-02-10T14:02:45.814Z,6.80
2019-02-10T14:05:17.857Z,6.80
2019-02-10T14:07:50.800Z,6.80
2019-02-10T14:10:25.601Z,6.70
2019-02-10T14:13:04.063Z,6.70
2019-02-10T14:16:11.174Z,6.80
2019-02-10T14:18:43.248Z,6.80
2019-02-10T14:21:13.577Z,6.70
2019-02-10T14:23:47.009Z,6.70
2019-02-10T14:26:17.472Z,6.70
2019-02-10T14:28:52.194Z,6.60
2019-02-10T14:31:24.878Z,6.60
2019-02-10T14:33:59.256Z,6.60
2019-02-10T14:36:36.957Z,6.60
2019-02-10T14:39:09.608Z,6.70
2019-02-10T14:41:40.215Z,6.60
2019-02-10T14:44:13.748Z,6.60
2019-02-10T14:46:44.371Z,6.50
2019-02-10T14:49:19.538Z,6.50
2019-02-10T14:51:50.079Z,6.50
2019-02-10T14:54:22.169Z,6.50
2019-02-10T14:56:58.309Z,6.40
2019-02-10T14:59:31.486Z,6.40
2019-02-10T15:02:07.036Z,6.40
2019-02-10T15:04:47.986Z,6.40
2019-02-10T15:07:25.147Z,6.30
2019-02-10T15:09:53.644Z,6.30
2019-02-10T15:12:23.984Z,6.20
2019-02-10T15:15:12.865Z,6.20
2019-02-10T15:17:44.845Z,6.20
2019-02-10T15:20:23.370Z,6.20
2019-02-10T15:22:59.921Z,6.20
2019-02-10T15:25:36.105Z,6.10
2019-02-10T15:28:06.480Z,6.20
2019-02-10T15:30:36.881Z,6.20
2019-02-10T15:33:07.242Z,6.10
2019-02-10T15:35:40.452Z,6.10
2019-02-10T15:38:11.061Z,6.10
2019-02-10T15:40:41.283Z,6.10
2019-02-10T15:43:11.816Z,6.10
2019-02-10T15:45:42.268Z,6.10
2019-02-10T15:48:12.554Z,6.10
2019-02-10T15:50:42.917Z,6.10
2019-02-10T15:53:13.325Z,6.00
2019-02-10T15:55:43.649Z,6.00
2019-02-10T15:58:14.348Z,5.90
2019-02-10T16:00:44.685Z,5.80
2019-02-10T16:03:16.051Z,5.80
2019-02-10T16:05:46.359Z,5.80
2019-02-10T16:08:16.774Z,5.90
2019-02-10T16:10:47.127Z,5.90
2019-02-10T16:13:17.453Z,5.80
2019-02-10T16:15:47.807Z,5.80
2019-02-10T16:18:18.172Z,5.80
2019-02-10T16:20:48.443Z,5.90
2019-02-10T16:23:18.819Z,5.80
2019-02-10T16:25:49.151Z,5.70
2019-02-10T16:28:20.765Z,5.70
2019-02-10T16:30:51.038Z,5.70
2019-02-10T16:33:23.592Z,5.70
2019-02-10T16:35:54.010Z,5.60
2019-02-10T16:38:24.476Z,5.60
2019-02-10T16:40:54.912Z,5.50
2019-02-10T16:43:25.401Z,5.40
2019-02-10T16:45:55.901Z,5.40
2019-02-10T16:48:26.320Z,5.40
2019-02-10T16:50:57.028Z,5.40
2019-02-10T16:53:27.395Z,5.30
2019-02-10T16:55:59.368Z,5.30
2019-02-10T16:58:29.857Z,5.30
2019-02-10T17:01:00.196Z,5.10
2019-02-10T17:03:31.879Z,5.10
2019-02-10T17:06:04.295Z,5.10
2019-02-10T17:08:35.839Z,5.00
2019-02-10T17:11:14.088Z,5.00
2019-02-10T17:13:41.134Z,5.00
2019-02-10T17:16:11.587Z,4.90
2019-02-10T17:18:42.155Z,4.90
2019-02-10T17:21:13.814Z,5.00
2019-02-10T17:23:44.344Z,4.90
2019-02-10T17:26:14.749Z,4.80
2019-02-10T17:28:45.144Z,4.80
2019-02-10T17:31:15.952Z,4.90
2019-02-10T17:33:46.432Z,4.90
2019-02-10T17:36:16.880Z,4.90
2019-02-10T17:38:47.437Z,4.90
2019-02-10T17:41:41.788Z,5.00
2019-02-10T17:44:12.744Z,4.90
2019-02-10T17:46:44.164Z,5.00
2019-02-10T17:49:14.714Z,5.10
2019-02-10T17:51:45.098Z,5.00
2019-02-10T17:54:15.552Z,5.20
2019-02-10T17:56:46.038Z,5.20
2019-02-10T17:59:16.375Z,5.20
2019-02-10T18:01:46.810Z,5.20
2019-02-10T18:04:17.232Z,5.30
2019-02-10T18:06:47.606Z,5.30
2019-02-10T18:09:18.063Z,5.20
2019-02-10T18:11:48.459Z,5.20
2019-02-10T18:14:47.389Z,5.30
2019-02-10T18:17:46.402Z,5.40
2019-02-10T18:20:42.305Z,5.40
2019-02-10T18:23:31.879Z,5.30
2019-02-10T18:26:24.273Z,5.40
2019-02-10T18:29:12.571Z,5.40
2019-02-10T18:31:50.027Z,5.40
2019-02-10T18:34:33.539Z,5.40
2019-02-10T18:37:25.662Z,5.40
2019-02-10T18:40:41.629Z,5.50
2019-02-10T18:43:32.483Z,5.50
2019-02-10T18:46:20.494Z,5.50
2019-02-10T18:49:19.556Z,5.50
2019-02-10T18:51:58.545Z,5.50
2019-02-10T18:54:42.328Z,5.40
2019-02-10T18:57:31.414Z,5.40
2019-02-10T19:00:30.113Z,5.20
2019-02-10T19:03:06.370Z,5.10
2019-02-10T19:05:56.777Z,5.10
2019-02-10T19:08:48.352Z,5.10
2019-02-10T19:11:31.867Z,5.10
2019-02-10T19:14:20.090Z,5.20
2019-02-10T19:17:15.270Z,5.10
2019-02-10T19:20:04.587Z,5.20
2019-02-10T19:22:52.749Z,5.20
2019-02-10T19:25:30.782Z,5.20
2019-02-10T19:28:25.958Z,5.10
2019-02-10T19:31:07.987Z,5.10
2019-02-10T19:34:03.282Z,5.10
2019-02-10T19:36:58.756Z,5.20
2019-02-10T19:39:48.188Z,5.40
2019-02-10T19:42:35.171Z,5.40
2019-02-10T19:45:32.336Z,5.40
2019-02-10T19:48:31.633Z,5.60
2019-02-10T19:51:20.229Z,5.60
2019-02-10T19:54:14.523Z,5.50
2019-02-10T19:57:20.768Z,5.50
2019-02-10T20:00:02.991Z,5.40
2019-02-10T20:02:52.119Z,5.50
2019-02-10T20:05:32.324Z,5.40
2019-02-10T20:08:14.076Z,5.40
2019-02-10T20:10:57.591Z,5.50
2019-02-10T20:13:34.408Z,5.60
2019-02-10T20:16:13.006Z,5.80
2019-02-10T20:19:05.219Z,6.00
2019-02-10T20:21:48.031Z,6.00
2019-02-10T20:24:29.739Z,6.00
2019-02-10T20:27:19.201Z,6.10
2019-02-10T20:30:12.686Z,6.10
2019-02-10T20:33:08.031Z,6.10
2019-02-10T20:35:57.417Z,6.20
2019-02-10T20:38:40.010Z,6.10
2019-02-10T20:41:43.294Z,6.20
2019-02-10T20:44:32.867Z,6.20
2019-02-10T20:47:26.356Z,6.30
2019-02-10T20:50:18.740Z,6.30
2019-02-10T20:53:20.250Z,6.30
2019-02-10T20:56:12.440Z,6.30
2019-02-10T20:59:11.117Z,6.30
2019-02-10T21:02:18.670Z,6.30
2019-02-10T21:05:04.305Z,6.40
2019-02-10T21:07:49.469Z,6.30
2019-02-10T21:10:29.341Z,6.30
2019-02-10T21:13:18.710Z,6.20
2019-02-10T21:16:14.091Z,6.10
2019-02-10T21:19:03.386Z,6.10
2019-02-10T21:21:52.629Z,6.10
2019-02-10T21:24:41.011Z,6.00
2019-02-10T21:27:36.500Z,6.00
2019-02-10T21:30:32.898Z,6.00
2019-02-10T21:36:19.972Z,5.80
2019-02-10T21:39:05.919Z,5.80
2019-02-10T21:41:59.205Z,5.80
2019-02-10T21:44:36.028Z,5.80
2019-02-10T21:47:13.692Z,5.80
2019-02-10T21:49:44.115Z,5.80
2019-02-10T21:52:14.488Z,5.80
2019-02-10T21:54:46.610Z,5.80
2019-02-10T21:57:16.994Z,5.70
2019-02-10T21:59:47.377Z,5.70
2019-02-10T22:02:17.804Z,5.70
2019-02-10T22:04:48.120Z,5.70
2019-02-10T22:07:18.897Z,5.80
2019-02-10T22:09:49.130Z,5.80
2019-02-10T22:12:19.460Z,5.90
2019-02-10T22:14:49.746Z,5.80
2019-02-10T22:17:20.148Z,5.80
2019-02-10T22:19:50.399Z,5.80
2019-02-10T22:22:20.678Z,5.90
2019-02-10T22:24:50.963Z,6.00
2019-02-10T22:27:21.350Z,6.00
2019-02-10T22:29:51.577Z,6.00
2019-02-10T22:32:21.948Z,5.90
2019-02-10T22:34:52.313Z,6.00
2019-02-10T22:37:22.716Z,6.00
2019-02-10T22:39:53.078Z,6.10
2019-02-10T22:42:23.494Z,6.10
2019-02-10T22:44:53.816Z,6.10
2019-02-10T22:47:24.256Z,6.10
2019-02-10T22:49:54.628Z,6.20
2019-02-10T22:52:26.571Z,6.10
2019-02-10T22:54:57.603Z,6.10
2019-02-10T22:57:28.346Z,6.10
2019-02-10T22:59:59.720Z,6.10
2019-02-10T23:02:30.224Z,6.20
2019-02-10T23:05:00.537Z,6.20
2019-02-10T23:07:30.936Z,6.20
2019-02-10T23:10:01.377Z,6.20
2019-02-10T23:12:31.813Z,6.20
2019-02-10T23:15:03.408Z,6.10
2019-02-10T23:17:33.931Z,6.10
2019-02-10T23:20:04.438Z,6.10
2019-02-10T23:22:34.762Z,6.10
2019-02-10T23:25:05.214Z,6.10
2019-02-10T23:27:35.588Z,6.10
2019-02-10T23:30:06.093Z,6.10
2019-02-10T23:32:36.521Z,6.10
2019-02-10T23:35:08.156Z,6.10
2019-02-10T23:37:38.532Z,6.10
2019-02-10T23:40:10.589Z,6.10
2019-02-10T23:42:40.862Z,6.10
2019-02-10T23:45:11.140Z,6.10
2019-02-10T23:47:44.511Z,6.10
2019-02-10T23:50:14.805Z,6.20
2019-02-10T23:52:45.093Z,6.20
2019-02-10T23:55:15.385Z,6.20
2019-02-10T23:57:45.694Z,6.30
